Cherokee, Oklahoma
Current Conditions -  °F | °C
As of 10:55 PM on Friday 19 Dec 2014 (Local Time) from KAVK Reporting Station
Haze Haze  
Wind Chill: 32°   Ceiling: 2100
Heat Index: 37°   Visibility: 5mi
Dew Point: 37°   Wind: 7mph
Humidity: 100%   Direction: 180°S
Pressure: 30.18"   Gusts: NA
Location:  36.75°N, 98.36°W
Report Text: KAVK 200455Z AUTO 18006KT 5SM BR OVC021 03/03 A3018 RMK AO2
Loading
Personal Weather Stations






























Interactive Weather Map New forecast layout! Learn more

10-Day Weather Forecast

Advertisements
Track Severe Weather on mobile